createdAt,value
2023-05-01T00:01:19.096Z,88.70
2023-05-01T00:03:45.955Z,89.57
2023-05-01T00:06:12.626Z,89.57
2023-05-01T00:08:39.093Z,89.16
2023-05-01T00:11:09.666Z,89.60
2023-05-01T00:13:36.136Z,89.42
2023-05-01T00:16:02.606Z,88.93
2023-05-01T00:18:30.428Z,88.96
2023-05-01T00:20:56.874Z,89.94
2023-05-01T00:23:23.351Z,90.37
2023-05-01T00:25:49.765Z,90.85
2023-05-01T00:28:18.905Z,90.19
2023-05-01T00:30:45.705Z,89.88
2023-05-01T00:33:12.180Z,91.03
2023-05-01T00:35:38.568Z,92.16
2023-05-01T00:38:05.683Z,91.30
2023-05-01T00:40:32.261Z,92.12
2023-05-01T00:42:58.705Z,91.80
2023-05-01T00:45:25.752Z,92.44
2023-05-01T00:47:52.568Z,91.63
2023-05-01T00:50:19.147Z,91.74
2023-05-01T00:52:46.038Z,91.40
2023-05-01T00:55:12.679Z,92.61
2023-05-01T00:57:39.129Z,91.94
2023-05-01T01:00:06.096Z,91.23
2023-05-01T01:02:32.878Z,91.01
2023-05-01T01:04:59.627Z,91.66
2023-05-01T01:07:51.924Z,92.14
2023-05-01T01:10:37.396Z,91.53
2023-05-01T01:13:18.122Z,92.93
2023-05-01T01:15:50.677Z,92.65
2023-05-01T01:18:24.001Z,93.39
2023-05-01T01:20:58.133Z,93.77
2023-05-01T01:23:36.713Z,93.04
2023-05-01T01:26:41.376Z,91.94
2023-05-01T01:29:26.688Z,93.15
2023-05-01T01:32:01.821Z,92.74
2023-05-01T01:34:33.658Z,92.60
2023-05-01T01:37:17.467Z,91.98
2023-05-01T01:39:48.738Z,92.68
2023-05-01T01:42:26.827Z,94.07
2023-05-01T01:44:55.612Z,94.51
2023-05-01T01:47:28.270Z,94.33
2023-05-01T01:49:55.778Z,93.88
2023-05-01T01:52:23.474Z,93.11
2023-05-01T01:54:58.705Z,92.52
2023-05-01T01:57:26.355Z,92.70
2023-05-01T01:59:53.658Z,93.06
2023-05-01T02:02:20.952Z,93.12
2023-05-01T02:04:51.700Z,92.22
2023-05-01T02:07:19.361Z,92.35
2023-05-01T02:09:46.492Z,92.77
2023-05-01T02:12:14.403Z,93.35
2023-05-01T02:14:41.297Z,93.95
2023-05-01T02:17:09.460Z,93.70
2023-05-01T02:19:38.880Z,93.40
2023-05-01T02:22:05.969Z,93.05
2023-05-01T02:24:32.966Z,92.57
2023-05-01T02:27:10.678Z,92.98
2023-05-01T02:29:37.743Z,93.08
2023-05-01T02:32:04.249Z,93.94
2023-05-01T02:34:31.029Z,94.22
2023-05-01T02:36:57.454Z,94.21
2023-05-01T02:39:23.869Z,93.66
2023-05-01T02:41:51.799Z,94.48
2023-05-01T02:44:19.096Z,93.43
2023-05-01T02:46:47.342Z,92.88
2023-05-01T02:49:14.636Z,93.58
2023-05-01T02:51:41.681Z,93.07
2023-05-01T02:54:08.424Z,94.00
2023-05-01T02:56:35.116Z,94.15
2023-05-01T02:59:01.943Z,93.88
2023-05-01T03:01:28.506Z,93.86
2023-05-01T03:03:55.027Z,93.82
2023-05-01T03:06:21.564Z,93.93
2023-05-01T03:08:48.050Z,93.53
2023-05-01T03:11:15.536Z,93.59
2023-05-01T03:13:42.008Z,93.82
2023-05-01T03:16:08.463Z,93.55
2023-05-01T03:18:34.987Z,93.06
2023-05-01T03:21:01.438Z,93.41
2023-05-01T03:23:28.490Z,92.46
2023-05-01T03:25:54.951Z,92.94
2023-05-01T03:28:23.531Z,93.68
2023-05-01T03:30:51.102Z,93.78
2023-05-01T03:33:17.493Z,94.45
2023-05-01T03:35:43.923Z,95.12
2023-05-01T03:38:10.655Z,94.66
2023-05-01T03:40:37.064Z,94.51
2023-05-01T03:43:03.554Z,93.48
2023-05-01T03:45:29.943Z,94.21
2023-05-01T03:47:57.239Z,93.65
2023-05-01T03:50:23.775Z,93.69
2023-05-01T03:52:50.284Z,93.26
2023-05-01T03:55:16.740Z,93.80
2023-05-01T03:57:43.367Z,94.26
2023-05-01T04:00:11.753Z,95.41
2023-05-01T04:02:38.470Z,95.60
2023-05-01T04:05:05.314Z,95.14
2023-05-01T04:07:31.741Z,95.22
2023-05-01T04:09:58.469Z,94.09
2023-05-01T04:12:24.940Z,92.76
2023-05-01T04:14:51.397Z,94.20
2023-05-01T04:17:17.931Z,93.76
2023-05-01T04:19:44.474Z,94.08
2023-05-01T04:22:10.877Z,93.51
2023-05-01T04:24:37.402Z,93.31
2023-05-01T04:27:04.658Z,93.28
2023-05-01T04:29:31.071Z,93.87
2023-05-01T04:31:57.583Z,93.76
2023-05-01T04:34:24.416Z,95.71
2023-05-01T04:36:51.783Z,95.17
2023-05-01T04:39:18.198Z,93.88
2023-05-01T04:41:44.648Z,94.88
2023-05-01T04:44:11.095Z,93.58
2023-05-01T04:46:37.602Z,93.11
2023-05-01T04:49:04.102Z,94.55
2023-05-01T04:51:31.010Z,94.52
2023-05-01T04:53:57.465Z,93.89
2023-05-01T04:56:25.369Z,95.78
2023-05-01T04:58:51.951Z,94.68
2023-05-01T05:01:18.442Z,94.00
2023-05-01T05:03:47.976Z,94.17
2023-05-01T05:06:16.216Z,94.58
2023-05-01T05:08:42.815Z,94.40
2023-05-01T05:11:09.294Z,93.63
2023-05-01T05:13:35.713Z,93.39
2023-05-01T05:16:02.220Z,93.61
2023-05-01T05:18:28.641Z,93.31
2023-05-01T05:20:55.026Z,92.58
2023-05-01T05:23:21.668Z,93.08
2023-05-01T05:25:48.121Z,93.96
2023-05-01T05:28:14.506Z,92.87
2023-05-01T05:30:40.929Z,92.58
2023-05-01T05:33:08.605Z,92.03
2023-05-01T05:35:35.386Z,91.99
2023-05-01T05:38:02.001Z,92.09
2023-05-01T05:40:28.489Z,91.85
2023-05-01T05:42:54.929Z,91.19
2023-05-01T05:45:21.351Z,91.53
2023-05-01T05:47:47.803Z,91.13
2023-05-01T05:50:14.248Z,91.03
2023-05-01T05:52:40.660Z,90.67
2023-05-01T05:55:07.694Z,89.90
2023-05-01T05:57:38.154Z,88.79
2023-05-01T06:00:05.533Z,87.39
2023-05-01T06:02:32.635Z,84.77
2023-05-01T06:04:59.410Z,84.42
2023-05-01T06:07:26.033Z,83.85
2023-05-01T06:09:52.525Z,84.05
2023-05-01T06:12:18.995Z,81.39
2023-05-01T06:14:45.797Z,82.06
2023-05-01T06:17:12.270Z,82.77
2023-05-01T06:19:38.662Z,79.49
2023-05-01T06:22:05.150Z,79.85
2023-05-01T06:24:32.004Z,80.20
2023-05-01T06:27:00.777Z,81.72
2023-05-01T06:29:27.821Z,81.81
2023-05-01T06:31:54.400Z,80.17
2023-05-01T06:34:20.876Z,79.25
2023-05-01T06:36:47.264Z,80.49
2023-05-01T06:39:13.723Z,78.70
2023-05-01T06:41:40.190Z,77.50
2023-05-01T06:44:06.627Z,75.84
2023-05-01T06:46:33.098Z,76.56
2023-05-01T06:48:59.508Z,76.04
2023-05-01T06:51:26.011Z,76.24
2023-05-01T06:53:52.424Z,74.21
2023-05-01T06:56:18.844Z,73.11
2023-05-01T06:58:45.270Z,74.80
2023-05-01T07:01:11.858Z,72.87
2023-05-01T07:03:38.864Z,72.73
2023-05-01T07:06:05.552Z,72.92
2023-05-01T07:08:32.190Z,72.98
2023-05-01T07:10:58.617Z,71.88
2023-05-01T07:13:26.422Z,70.29
2023-05-01T07:15:54.640Z,70.76
2023-05-01T07:18:21.209Z,70.73
2023-05-01T07:20:49.962Z,69.41
2023-05-01T07:23:16.496Z,69.99
2023-05-01T07:25:45.406Z,67.41
2023-05-01T07:28:11.975Z,67.36
2023-05-01T07:30:38.623Z,67.38
2023-05-01T07:33:08.184Z,65.95
2023-05-01T07:35:34.692Z,67.00
2023-05-01T07:38:01.189Z,65.88
2023-05-01T07:40:27.625Z,64.68
2023-05-01T07:42:54.646Z,64.46
2023-05-01T07:45:21.318Z,64.13
2023-05-01T07:47:47.983Z,65.02
2023-05-01T07:50:14.485Z,64.71
2023-05-01T07:52:40.923Z,63.61
2023-05-01T07:55:08.777Z,63.13
2023-05-01T07:57:35.890Z,60.49
2023-05-01T08:00:02.356Z,62.69
2023-05-01T08:02:29.235Z,62.10
2023-05-01T08:04:55.746Z,61.28
2023-05-01T08:07:22.323Z,61.15
2023-05-01T08:09:48.762Z,61.36
2023-05-01T08:12:15.232Z,59.56
2023-05-01T08:14:41.759Z,61.17
2023-05-01T08:17:08.184Z,57.96
2023-05-01T08:19:34.863Z,61.00
2023-05-01T08:22:01.310Z,57.98
2023-05-01T08:24:27.945Z,60.39
2023-05-01T08:26:54.345Z,60.06
2023-05-01T08:29:20.798Z,59.33
2023-05-01T08:31:47.268Z,60.05
2023-05-01T08:34:13.760Z,59.37
2023-05-01T08:36:40.162Z,57.38
2023-05-01T08:39:06.768Z,57.72
2023-05-01T08:41:33.275Z,59.93
2023-05-01T08:44:01.549Z,56.75
2023-05-01T08:46:39.035Z,57.92
2023-05-01T08:49:08.384Z,58.04
2023-05-01T08:51:34.901Z,58.34
2023-05-01T08:54:02.270Z,57.24
2023-05-01T08:56:31.154Z,57.77
2023-05-01T08:58:59.286Z,57.46
2023-05-01T09:01:25.885Z,59.08
2023-05-01T09:03:52.949Z,58.82
2023-05-01T09:06:20.393Z,58.39
2023-05-01T09:08:46.901Z,58.61
2023-05-01T09:11:13.747Z,58.96
2023-05-01T09:13:40.179Z,58.39
2023-05-01T09:16:07.517Z,57.97
2023-05-01T09:18:34.781Z,57.14
2023-05-01T09:21:01.863Z,55.35
2023-05-01T09:23:28.293Z,55.87
2023-05-01T09:25:55.354Z,57.39
2023-05-01T09:28:41.533Z,56.58
2023-05-01T09:31:21.777Z,55.23
2023-05-01T09:34:07.182Z,56.74
2023-05-01T09:36:34.383Z,56.55
2023-05-01T09:39:01.659Z,56.58
2023-05-01T09:41:28.676Z,55.82
2023-05-01T09:43:56.560Z,55.88
2023-05-01T09:46:26.850Z,54.89
2023-05-01T09:48:58.975Z,55.86
2023-05-01T09:51:34.607Z,54.57
2023-05-01T09:54:02.621Z,55.17
2023-05-01T09:56:31.281Z,57.00
2023-05-01T09:59:00.200Z,54.04
2023-05-01T10:01:43.017Z,55.76
2023-05-01T10:04:09.999Z,53.61
2023-05-01T10:06:37.210Z,54.49
2023-05-01T10:09:04.618Z,53.98
2023-05-01T10:11:31.098Z,55.69
2023-05-01T10:14:15.663Z,55.60
2023-05-01T10:16:42.500Z,54.39
2023-05-01T10:19:10.083Z,55.36
2023-05-01T10:21:36.986Z,55.22
2023-05-01T10:24:05.575Z,57.05
2023-05-01T10:26:34.645Z,56.28
2023-05-01T10:29:01.710Z,56.51
2023-05-01T10:31:28.707Z,54.90
2023-05-01T10:33:55.939Z,56.02
2023-05-01T10:36:28.616Z,55.46
2023-05-01T10:38:55.092Z,55.09
2023-05-01T10:41:58.936Z,53.31
2023-05-01T10:44:27.027Z,53.96
2023-05-01T10:46:54.486Z,53.81
2023-05-01T10:49:21.541Z,52.89
2023-05-01T10:52:00.835Z,51.67
2023-05-01T10:54:28.621Z,51.47
2023-05-01T10:56:57.219Z,51.55
2023-05-01T10:59:23.796Z,52.70
2023-05-01T11:01:53.774Z,52.52
2023-05-01T11:04:21.637Z,51.41
2023-05-01T11:07:07.551Z,50.27
2023-05-01T11:09:41.270Z,50.62
2023-05-01T11:12:12.122Z,50.77
2023-05-01T11:14:54.125Z,50.05
2023-05-01T11:17:39.563Z,48.84
2023-05-01T11:20:06.842Z,46.91
2023-05-01T11:22:33.902Z,47.42
2023-05-01T11:25:04.565Z,46.78
2023-05-01T11:27:31.509Z,46.96
2023-05-01T11:30:00.999Z,46.48
2023-05-01T11:32:28.333Z,46.24
2023-05-01T11:34:55.210Z,47.72
2023-05-01T11:37:41.826Z,48.80
2023-05-01T11:40:19.480Z,49.66
2023-05-01T11:42:46.012Z,52.98
2023-05-01T11:45:12.713Z,53.42
2023-05-01T11:47:39.722Z,55.31
2023-05-01T11:50:07.574Z,57.17
2023-05-01T11:52:48.613Z,60.47
2023-05-01T11:55:16.448Z,64.00
2023-05-01T11:57:49.667Z,61.64
2023-05-01T12:00:25.552Z,64.42
2023-05-01T12:03:09.938Z,65.34
2023-05-01T12:05:38.117Z,67.87
2023-05-01T12:08:11.282Z,65.62
2023-05-01T12:10:39.528Z,61.50
2023-05-01T12:13:07.269Z,63.69
2023-05-01T12:15:42.276Z,62.87
2023-05-01T12:18:09.140Z,61.38
2023-05-01T12:20:40.739Z,55.63
2023-05-01T12:23:10.535Z,64.54
2023-05-01T12:25:39.316Z,64.05
2023-05-01T12:28:17.519Z,57.30
2023-05-01T12:30:45.763Z,58.41
2023-05-01T12:33:17.012Z,53.98
2023-05-01T12:35:47.502Z,52.61
2023-05-01T12:38:18.223Z,55.18
2023-05-01T12:40:52.686Z,55.90
2023-05-01T12:43:20.847Z,55.00
2023-05-01T12:45:52.068Z,55.34
2023-05-01T12:48:19.040Z,57.23
2023-05-01T12:50:47.486Z,53.27
2023-05-01T12:53:14.562Z,52.61
2023-05-01T12:55:48.920Z,54.50
2023-05-01T12:58:16.211Z,52.28
2023-05-01T13:00:44.778Z,53.89
2023-05-01T13:03:11.532Z,54.01
2023-05-01T13:05:50.107Z,54.76
2023-05-01T13:08:32.293Z,56.14
2023-05-01T13:11:01.041Z,56.85
2023-05-01T13:13:28.251Z,54.39
2023-05-01T13:16:06.838Z,52.31
2023-05-01T13:18:34.031Z,54.46
2023-05-01T13:21:08.684Z,52.53
2023-05-01T13:23:36.340Z,53.25
2023-05-01T13:26:04.727Z,52.97
2023-05-01T13:28:32.205Z,52.72
2023-05-01T13:30:58.695Z,51.80
2023-05-01T13:33:25.150Z,52.57
2023-05-01T13:35:51.584Z,52.64
2023-05-01T13:38:23.248Z,50.99
2023-05-01T13:40:50.112Z,51.56
2023-05-01T13:43:17.039Z,50.81
2023-05-01T13:45:43.516Z,51.98
2023-05-01T13:48:10.760Z,52.51
2023-05-01T13:50:40.431Z,52.25
2023-05-01T13:53:06.984Z,52.58
2023-05-01T13:55:33.418Z,53.77
2023-05-01T13:58:00.926Z,54.35
2023-05-01T14:00:27.394Z,54.96
2023-05-01T14:02:56.339Z,56.48
2023-05-01T14:05:28.463Z,55.64
2023-05-01T14:07:56.905Z,56.44
2023-05-01T14:10:24.144Z,54.30
2023-05-01T14:12:51.026Z,54.94
2023-05-01T14:15:17.528Z,54.78
2023-05-01T14:17:44.079Z,53.52
2023-05-01T14:20:10.888Z,53.28
2023-05-01T14:22:48.351Z,52.25
2023-05-01T14:25:33.930Z,52.95
2023-05-01T14:28:01.923Z,53.21
2023-05-01T14:30:28.349Z,54.20
2023-05-01T14:32:55.628Z,55.08
2023-05-01T14:35:23.801Z,53.61
2023-05-01T14:37:50.750Z,52.58
2023-05-01T14:40:26.374Z,51.67
2023-05-01T14:42:53.918Z,52.66
2023-05-01T14:45:20.915Z,50.82
2023-05-01T14:47:48.111Z,53.14
2023-05-01T14:50:24.588Z,52.80
2023-05-01T14:52:59.157Z,53.74
2023-05-01T14:55:31.043Z,55.53
2023-05-01T14:57:57.746Z,54.83
2023-05-01T15:00:24.642Z,55.11
2023-05-01T15:02:51.376Z,54.54
2023-05-01T15:05:17.934Z,54.20
2023-05-01T15:07:44.485Z,54.01
2023-05-01T15:10:11.312Z,53.77
2023-05-01T15:12:37.732Z,52.71
2023-05-01T15:15:04.711Z,52.48
2023-05-01T15:17:32.435Z,52.64
2023-05-01T15:19:59.024Z,52.95
2023-05-01T15:22:25.484Z,52.77
2023-05-01T15:24:52.112Z,54.03
2023-05-01T15:27:18.514Z,53.44
2023-05-01T15:29:45.190Z,53.71
2023-05-01T15:32:13.004Z,53.90
2023-05-01T15:34:40.628Z,53.19
2023-05-01T15:37:07.299Z,53.19
2023-05-01T15:39:33.860Z,53.92
2023-05-01T15:42:00.972Z,53.68
2023-05-01T15:44:28.709Z,54.61
2023-05-01T15:46:55.447Z,54.50
2023-05-01T15:49:21.989Z,55.81
2023-05-01T15:51:48.412Z,55.84
2023-05-01T15:54:14.825Z,56.00
2023-05-01T15:56:41.215Z,55.85
2023-05-01T15:59:08.185Z,55.74
2023-05-01T16:01:35.493Z,55.73
2023-05-01T16:04:03.644Z,56.62
2023-05-01T16:06:31.167Z,55.77
2023-05-01T16:08:58.727Z,56.04
2023-05-01T16:11:25.185Z,55.19
2023-05-01T16:13:53.987Z,55.22
2023-05-01T16:16:25.536Z,55.01
2023-05-01T16:18:56.715Z,55.48
2023-05-01T16:21:24.526Z,56.85
2023-05-01T16:23:52.896Z,55.57
2023-05-01T16:26:22.596Z,55.49
2023-05-01T16:28:49.536Z,56.27
2023-05-01T16:31:27.190Z,56.55
2023-05-01T16:33:54.796Z,57.56
2023-05-01T16:36:21.430Z,58.18
2023-05-01T16:38:47.870Z,59.29
2023-05-01T16:41:17.958Z,59.04
2023-05-01T16:43:45.508Z,58.78
2023-05-01T16:46:16.491Z,58.61
2023-05-01T16:48:43.067Z,58.40
2023-05-01T16:51:11.813Z,59.09
2023-05-01T16:53:38.290Z,57.57
2023-05-01T16:56:04.987Z,57.33
2023-05-01T16:58:31.804Z,57.92
2023-05-01T17:00:58.190Z,57.82
2023-05-01T17:03:24.652Z,57.90
2023-05-01T17:05:51.161Z,58.75
2023-05-01T17:08:17.723Z,59.12
2023-05-01T17:10:45.016Z,59.67
2023-05-01T17:13:14.361Z,57.69
2023-05-01T17:15:40.891Z,57.59
2023-05-01T17:18:07.386Z,58.56
2023-05-01T17:20:33.879Z,58.70
2023-05-01T17:23:00.283Z,59.32
2023-05-01T17:25:26.746Z,59.28
2023-05-01T17:27:53.390Z,59.48
2023-05-01T17:30:20.034Z,60.80
2023-05-01T17:32:46.592Z,61.50
2023-05-01T17:35:13.096Z,60.86
2023-05-01T17:37:39.899Z,60.28
2023-05-01T17:40:08.822Z,61.00
2023-05-01T17:42:36.871Z,62.39
2023-05-01T17:45:07.198Z,61.71
2023-05-01T17:47:34.362Z,62.19
2023-05-01T17:50:04.657Z,63.62
2023-05-01T17:52:31.252Z,63.51
2023-05-01T17:54:57.782Z,63.34
2023-05-01T17:57:24.273Z,64.13
2023-05-01T17:59:53.351Z,64.17
2023-05-01T18:02:19.791Z,64.46
2023-05-01T18:04:50.047Z,64.41
2023-05-01T18:07:16.705Z,63.73
2023-05-01T18:09:43.159Z,63.02
2023-05-01T18:12:10.309Z,62.93
2023-05-01T18:14:37.130Z,63.28
2023-05-01T18:17:03.789Z,63.25
2023-05-01T18:19:30.298Z,63.15
2023-05-01T18:21:56.854Z,63.73
2023-05-01T18:24:23.409Z,63.54
2023-05-01T18:26:49.862Z,65.22
2023-05-01T18:29:16.485Z,64.37
2023-05-01T18:31:42.923Z,65.46
2023-05-01T18:34:10.222Z,64.81
2023-05-01T18:36:36.667Z,64.58
2023-05-01T18:39:03.093Z,65.35
2023-05-01T18:41:29.706Z,64.84
2023-05-01T18:43:58.010Z,65.00
2023-05-01T18:46:24.744Z,65.53
2023-05-01T18:48:51.333Z,65.64
2023-05-01T18:51:17.801Z,65.75
2023-05-01T18:53:44.503Z,65.98
2023-05-01T18:56:11.065Z,66.21
2023-05-01T18:58:37.537Z,66.18
2023-05-01T19:01:03.979Z,65.47
2023-05-01T19:03:30.392Z,66.35
2023-05-01T19:05:56.851Z,65.89
2023-05-01T19:08:23.345Z,66.91
2023-05-01T19:10:49.900Z,66.93
2023-05-01T19:13:16.438Z,67.56
2023-05-01T19:15:43.652Z,67.70
2023-05-01T19:18:10.633Z,68.10
2023-05-01T19:20:37.370Z,68.06
2023-05-01T19:23:03.837Z,68.56
2023-05-01T19:25:32.288Z,69.83
2023-05-01T19:27:59.774Z,69.71
2023-05-01T19:30:26.194Z,70.49
2023-05-01T19:32:52.715Z,69.61
2023-05-01T19:35:19.125Z,70.86
2023-05-01T19:37:46.876Z,70.85
2023-05-01T19:40:15.820Z,71.18
2023-05-01T19:42:42.297Z,72.55
2023-05-01T19:45:09.095Z,72.67
2023-05-01T19:47:35.912Z,73.03
2023-05-01T19:50:02.591Z,73.82
2023-05-01T19:52:30.261Z,73.00
2023-05-01T19:54:56.642Z,72.54
2023-05-01T19:57:23.856Z,72.28
2023-05-01T19:59:52.590Z,72.62
2023-05-01T20:02:19.141Z,72.90
2023-05-01T20:04:46.519Z,73.48
2023-05-01T20:07:13.006Z,74.07
2023-05-01T20:09:39.424Z,74.13
2023-05-01T20:12:05.865Z,73.90
2023-05-01T20:14:34.017Z,75.01
2023-05-01T20:17:01.023Z,76.43
2023-05-01T20:19:27.825Z,77.61
2023-05-01T20:21:54.513Z,77.10
2023-05-01T20:24:22.224Z,76.82
2023-05-01T20:26:50.153Z,77.83
2023-05-01T20:29:16.579Z,77.82
2023-05-01T20:31:43.159Z,77.05
2023-05-01T20:34:09.698Z,78.85
2023-05-01T20:36:36.276Z,80.72
2023-05-01T20:39:02.795Z,80.11
2023-05-01T20:41:29.297Z,80.19
2023-05-01T20:43:55.869Z,79.80
2023-05-01T20:46:22.948Z,80.79
2023-05-01T20:48:49.575Z,80.87
2023-05-01T20:51:16.407Z,81.48
2023-05-01T20:53:42.857Z,82.74
2023-05-01T20:56:09.320Z,82.52
2023-05-01T20:58:36.193Z,80.35
2023-05-01T21:01:02.736Z,81.85
2023-05-01T21:03:29.278Z,82.78
2023-05-01T21:05:59.298Z,82.41
2023-05-01T21:08:27.924Z,81.97
2023-05-01T21:10:54.625Z,82.45
2023-05-01T21:13:22.643Z,82.98
2023-05-01T21:15:49.278Z,83.26
2023-05-01T21:18:17.406Z,83.28
2023-05-01T21:20:46.104Z,84.26
2023-05-01T21:23:13.464Z,84.41
2023-05-01T21:25:40.381Z,84.39
2023-05-01T21:28:11.444Z,83.09
2023-05-01T21:30:38.067Z,83.70
2023-05-01T21:33:07.383Z,83.96
2023-05-01T21:35:34.388Z,85.81
2023-05-01T21:38:01.380Z,86.70
2023-05-01T21:40:27.915Z,85.78
2023-05-01T21:42:54.738Z,85.89
2023-05-01T21:45:21.428Z,84.79
2023-05-01T21:47:50.956Z,85.64
2023-05-01T21:50:19.896Z,86.69
2023-05-01T21:52:48.060Z,87.07
2023-05-01T21:55:17.986Z,86.01
2023-05-01T21:57:44.771Z,87.74
2023-05-01T22:00:12.219Z,88.58
2023-05-01T22:02:42.318Z,88.08
2023-05-01T22:05:09.462Z,88.01
2023-05-01T22:07:43.697Z,87.31
2023-05-01T22:10:12.092Z,87.21
2023-05-01T22:12:39.640Z,86.67
2023-05-01T22:15:13.599Z,86.78
2023-05-01T22:17:40.640Z,88.66
2023-05-01T22:20:08.654Z,87.77
2023-05-01T22:22:39.452Z,88.19
2023-05-01T22:25:07.043Z,88.05
2023-05-01T22:27:33.821Z,87.35
2023-05-01T22:30:00.415Z,87.41
2023-05-01T22:32:27.187Z,86.26
2023-05-01T22:34:53.729Z,87.43
2023-05-01T22:37:20.251Z,85.90
2023-05-01T22:39:46.676Z,87.79
2023-05-01T22:42:13.192Z,86.86
2023-05-01T22:44:39.705Z,88.38
2023-05-01T22:47:06.316Z,88.56
2023-05-01T22:49:33.114Z,89.60
2023-05-01T22:51:59.772Z,90.07
2023-05-01T22:54:26.306Z,89.53
2023-05-01T22:56:52.929Z,89.13
2023-05-01T22:59:19.728Z,89.30
2023-05-01T23:01:46.303Z,88.91
2023-05-01T23:04:13.827Z,89.93
2023-05-01T23:06:40.599Z,88.60
2023-05-01T23:09:07.464Z,90.24
2023-05-01T23:11:34.244Z,89.60
2023-05-01T23:14:01.273Z,89.36
2023-05-01T23:16:37.496Z,88.21
2023-05-01T23:19:04.463Z,89.85
2023-05-01T23:21:31.458Z,88.87
2023-05-01T23:23:57.896Z,89.09
2023-05-01T23:26:30.821Z,89.83
2023-05-01T23:28:57.481Z,89.35
2023-05-01T23:31:25.938Z,89.06
2023-05-01T23:33:53.343Z,90.56
2023-05-01T23:36:20.353Z,91.35
2023-05-01T23:38:47.268Z,92.15
2023-05-01T23:41:14.430Z,92.89
2023-05-01T23:43:41.042Z,91.88
2023-05-01T23:46:07.644Z,91.97
2023-05-01T23:48:34.838Z,92.63
2023-05-01T23:51:02.142Z,92.07
2023-05-01T23:53:28.677Z,91.62
2023-05-01T23:55:55.629Z,91.75
2023-05-01T23:58:22.795Z,90.49
